Time;durP1;ratioP1;P1;durP2;ratioP2;P2;SDS_P1;SDS_P2;PMS_P1;PMS_P2;Temp;Humidity;BMP_temperature;BMP_pressure;BME280_temperature;BME280_humidity;BME280_pressure;Samples;Min_cycle;Max_cycle;Signal;HPM_P1;HPM_P2
2022/03/08 00:01:40;;;;;;;2.42;1.50;;;21.80;39.50;;;;;;5002625;28;20100;-69
2022/03/08 00:04:06;;;;;;;2.60;1.60;;;21.80;39.50;;;;;;5001795;28;20038;-67
2022/03/08 00:06:32;;;;;;;2.15;1.30;;;21.80;40.00;;;;;;5003253;28;20037;-63
2022/03/08 00:08:57;;;;;;;2.00;1.30;;;21.70;39.50;;;;;;5001732;28;20038;-66
2022/03/08 00:11:23;;;;;;;2.40;1.38;;;21.70;39.60;;;;;;5002501;28;20038;-63
2022/03/08 00:13:51;;;;;;;2.28;1.40;;;21.70;39.50;;;;;;5003377;28;20436;-69
2022/03/08 00:16:17;;;;;;;1.90;1.23;;;21.70;39.60;;;;;;5003372;28;20041;-65
2022/03/08 00:18:44;;;;;;;1.70;1.23;;;21.70;39.50;;;;;;5001305;28;20057;-64
2022/03/08 00:21:11;;;;;;;2.25;1.58;;;21.70;39.50;;;;;;5002889;28;20528;-66
2022/03/08 00:23:36;;;;;;;3.25;1.52;;;21.70;39.50;;;;;;5000741;28;20137;-66
2022/03/08 00:26:03;;;;;;;2.00;1.40;;;21.60;39.50;;;;;;5004473;28;20117;-65
2022/03/08 00:28:29;;;;;;;2.30;1.52;;;21.70;39.60;;;;;;5007444;28;20419;-68
2022/03/08 00:30:56;;;;;;;2.00;1.40;;;21.60;39.50;;;;;;5005821;28;20037;-64
2022/03/08 00:33:21;;;;;;;2.95;1.50;;;21.60;39.60;;;;;;5007265;28;20036;-64
2022/03/08 00:35:50;;;;;;;2.10;1.40;;;21.60;39.60;;;;;;5006054;28;20033;-67
2022/03/08 00:38:17;;;;;;;2.03;1.40;;;21.50;39.50;;;;;;5004717;28;20033;-64
2022/03/08 00:40:43;;;;;;;1.90;1.20;;;21.60;39.60;;;;;;5005963;28;20060;-64
2022/03/08 00:43:08;;;;;;;1.77;1.33;;;21.60;39.50;;;;;;5003037;28;20026;-65
2022/03/08 00:45:34;;;;;;;3.83;1.50;;;21.50;39.50;;;;;;5006517;28;20030;-66
2022/03/08 00:48:00;;;;;;;1.80;1.27;;;21.50;39.50;;;;;;5012624;28;20036;-68
2022/03/08 00:50:34;;;;;;;2.33;1.20;;;21.50;39.50;;;;;;5005992;28;20038;-66
2022/03/08 00:53:00;;;;;;;2.20;1.30;;;21.50;39.50;;;;;;5004065;28;20045;-62
2022/03/08 00:55:29;;;;;;;2.55;1.40;;;21.40;39.50;;;;;;5006391;28;20025;-66
2022/03/08 00:57:55;;;;;;;2.72;1.30;;;21.40;39.50;;;;;;5005261;28;20038;-66
2022/03/08 01:00:25;;;;;;;1.80;1.30;;;21.40;39.50;;;;;;5005784;28;20021;-63
2022/03/08 01:02:54;;;;;;;2.03;1.50;;;21.40;39.50;;;;;;5006158;28;20110;-67
2022/03/08 01:05:20;;;;;;;3.03;1.52;;;21.40;39.60;;;;;;5013397;28;20034;-68
2022/03/08 01:07:46;;;;;;;1.38;1.10;;;21.40;39.60;;;;;;5004245;28;20054;-65
2022/03/08 01:10:15;;;;;;;2.17;1.30;;;21.40;39.60;;;;;;5003663;28;20042;-69
2022/03/08 01:12:41;;;;;;;;;;;21.30;39.60;;;;;;5004504;28;20107;-68
2022/03/08 01:15:08;;;;;;;2.63;1.30;;;21.30;39.50;;;;;;5006469;28;19984;-63
2022/03/08 01:17:34;;;;;;;2.25;1.42;;;21.30;39.60;;;;;;5004635;28;20061;-65
2022/03/08 01:20:00;;;;;;;2.13;1.30;;;21.30;39.60;;;;;;5004702;28;20037;-63
2022/03/08 01:22:25;;;;;;;2.58;1.38;;;21.30;39.60;;;;;;5005461;28;20113;-66
2022/03/08 01:24:52;;;;;;;2.05;1.30;;;21.20;39.60;;;;;;5004331;28;20037;-64
2022/03/08 01:27:18;;;;;;;1.67;1.23;;;21.20;39.60;;;;;;5003183;28;20048;-67
2022/03/08 01:29:44;;;;;;;2.00;1.35;;;21.20;39.70;;;;;;5004885;28;20058;-65
2022/03/08 01:32:09;;;;;;;1.92;1.30;;;21.20;39.70;;;;;;5002462;28;20033;-63
2022/03/08 01:34:35;;;;;;;1.92;1.30;;;21.20;39.60;;;;;;5006109;28;20054;-64
2022/03/08 01:37:03;;;;;;;2.67;1.27;;;21.20;39.60;;;;;;5006243;28;20022;-66
2022/03/08 01:39:28;;;;;;;2.30;1.30;;;21.20;39.70;;;;;;5003200;28;20026;-68
2022/03/08 01:41:54;;;;;;;1.63;1.20;;;21.10;39.60;;;;;;5003837;28;20378;-67
2022/03/08 01:44:20;;;;;;;2.17;1.30;;;21.10;39.70;;;;;;5004802;28;20052;-63
2022/03/08 01:46:46;;;;;;;2.17;1.42;;;21.10;39.80;;;;;;5004686;28;20026;-68
2022/03/08 01:49:12;;;;;;;2.85;1.20;;;21.10;39.70;;;;;;5004864;28;20026;-63
2022/03/08 01:51:39;;;;;;;1.95;1.30;;;21.00;39.70;;;;;;5005155;28;20037;-65
2022/03/08 01:54:06;;;;;;;1.85;1.20;;;21.00;40.30;;;;;;5004368;28;20044;-66
2022/03/08 01:56:33;;;;;;;2.10;1.30;;;21.00;39.80;;;;;;5003493;28;20483;-68
2022/03/08 01:58:59;;;;;;;2.17;1.20;;;21.00;39.80;;;;;;5003230;28;20163;-67
2022/03/08 02:01:25;;;;;;;1.70;1.20;;;21.00;39.80;;;;;;5004061;28;20038;-65
2022/03/08 02:03:51;;;;;;;2.08;1.30;;;21.00;39.90;;;;;;5004479;28;20038;-66
2022/03/08 02:06:17;;;;;;;1.80;1.33;;;21.00;39.90;;;;;;5004848;28;20030;-65
2022/03/08 02:08:43;;;;;;;2.42;1.40;;;20.90;39.80;;;;;;5003706;28;20048;-68
2022/03/08 02:11:08;;;;;;;1.95;1.30;;;20.90;39.90;;;;;;5001093;28;20025;-64
2022/03/08 02:13:34;;;;;;;1.95;1.30;;;20.90;39.90;;;;;;5004172;28;20022;-68
2022/03/08 02:16:00;;;;;;;2.08;1.38;;;20.90;39.90;;;;;;5004434;28;20026;-64
2022/03/08 02:18:25;;;;;;;1.92;1.20;;;20.90;39.90;;;;;;5004068;28;20106;-68
2022/03/08 02:20:51;;;;;;;2.38;1.40;;;20.90;40.00;;;;;;5006592;28;20034;-62
2022/03/08 02:23:17;;;;;;;1.80;1.35;;;20.80;39.90;;;;;;5003940;28;20032;-68
2022/03/08 02:25:42;;;;;;;2.78;1.20;;;20.80;40.00;;;;;;5003380;28;20196;-62
2022/03/08 02:28:08;;;;;;;1.92;1.33;;;20.80;39.90;;;;;;5004083;28;20038;-67
2022/03/08 02:30:34;;;;;;;1.73;1.20;;;20.80;39.90;;;;;;5002489;28;20057;-62
2022/03/08 02:33:00;;;;;;;1.65;1.17;;;20.80;40.00;;;;;;5005172;28;20026;-65
2022/03/08 02:35:29;;;;;;;1.83;1.20;;;20.80;40.00;;;;;;5003736;28;20077;-66
2022/03/08 02:37:58;;;;;;;2.05;1.30;;;20.80;40.00;;;;;;5000554;28;20087;-66
2022/03/08 02:40:30;;;;;;;1.80;1.30;;;20.80;40.00;;;;;;5001412;28;20052;-66
2022/03/08 02:42:56;;;;;;;2.20;1.30;;;20.80;40.00;;;;;;5003732;28;20049;-66
2022/03/08 02:45:22;;;;;;;2.10;1.30;;;20.70;40.00;;;;;;5018516;28;20030;-64
2022/03/08 02:47:48;;;;;;;1.73;1.17;;;20.70;40.00;;;;;;5004781;28;20030;-66
2022/03/08 02:50:15;;;;;;;1.88;1.40;;;20.70;40.00;;;;;;5003202;28;20037;-66
2022/03/08 02:52:43;;;;;;;1.80;1.20;;;20.70;40.00;;;;;;5003017;28;20032;-67
2022/03/08 02:55:11;;;;;;;2.20;1.42;;;20.70;40.10;;;;;;5001771;28;20110;-65
2022/03/08 02:57:37;;;;;;;2.00;1.30;;;20.70;40.00;;;;;;5001020;28;20030;-66
2022/03/08 03:00:06;;;;;;;1.80;1.23;;;20.70;40.10;;;;;;4999440;28;20062;-65
2022/03/08 03:02:31;;;;;;;2.33;1.40;;;20.60;40.00;;;;;;5001851;28;20076;-68
2022/03/08 03:04:57;;;;;;;1.83;1.30;;;20.70;40.10;;;;;;5004996;28;20068;-64
2022/03/08 03:07:24;;;;;;;2.15;1.42;;;20.60;40.60;;;;;;5005300;28;20026;-66
2022/03/08 03:09:50;;;;;;;1.80;1.40;;;20.60;40.00;;;;;;5002000;28;20649;-68
2022/03/08 03:12:16;;;;;;;1.92;1.30;;;20.60;40.00;;;;;;5001190;28;20037;-65
2022/03/08 03:14:42;;;;;;;2.10;1.30;;;20.60;40.10;;;;;;5003033;28;20045;-65
2022/03/08 03:17:08;;;;;;;2.08;1.30;;;20.60;40.10;;;;;;5005163;28;20034;-65
2022/03/08 03:19:33;;;;;;;1.77;1.23;;;20.60;40.10;;;;;;5004367;28;20122;-66
2022/03/08 03:21:59;;;;;;;1.95;1.30;;;20.60;40.10;;;;;;5004308;28;20045;-61
2022/03/08 03:24:25;;;;;;;1.67;1.25;;;20.60;40.10;;;;;;5000881;28;20049;-65
2022/03/08 03:26:50;;;;;;;1.98;1.30;;;20.60;40.10;;;;;;5001524;28;20184;-63
2022/03/08 03:29:16;;;;;;;2.00;1.30;;;20.60;40.10;;;;;;5003474;28;20115;-63
2022/03/08 03:31:41;;;;;;;1.60;1.20;;;20.50;40.10;;;;;;5004620;28;20103;-65
2022/03/08 03:34:07;;;;;;;1.55;1.20;;;20.50;40.10;;;;;;5004201;28;20124;-66
2022/03/08 03:36:33;;;;;;;2.22;1.27;;;20.50;40.10;;;;;;5004609;28;20026;-66
2022/03/08 03:38:58;;;;;;;1.90;1.35;;;20.50;40.10;;;;;;5003659;28;20030;-64
2022/03/08 03:41:24;;;;;;;2.00;1.40;;;20.50;40.10;;;;;;5001724;28;20443;-68
2022/03/08 03:43:49;;;;;;;2.15;1.48;;;20.50;40.10;;;;;;5002364;28;20045;-65
2022/03/08 03:46:16;;;;;;;1.77;1.27;;;20.50;40.10;;;;;;5004847;28;20149;-68
2022/03/08 03:48:42;;;;;;;2.45;1.42;;;20.50;40.20;;;;;;5003508;28;20550;-65
2022/03/08 03:51:07;;;;;;;1.80;1.30;;;20.50;40.10;;;;;;5003512;28;20049;-68
2022/03/08 03:53:33;;;;;;;1.90;1.30;;;20.50;40.20;;;;;;5003219;28;20128;-65
2022/03/08 03:55:59;;;;;;;2.08;1.30;;;20.50;40.20;;;;;;5002799;28;20044;-63
2022/03/08 03:58:24;;;;;;;1.83;1.38;;;20.50;40.20;;;;;;5004061;28;20080;-66
2022/03/08 04:00:50;;;;;;;1.90;1.42;;;20.50;40.20;;;;;;5004920;28;20033;-64
2022/03/08 04:03:18;;;;;;;1.65;1.27;;;20.40;40.10;;;;;;5007571;28;20045;-68
2022/03/08 04:05:44;;;;;;;1.65;1.20;;;20.40;40.10;;;;;;5015823;28;20034;-62
2022/03/08 04:08:10;;;;;;;2.00;1.25;;;20.40;40.10;;;;;;5005982;28;20088;-64
2022/03/08 04:10:37;;;;;;;2.83;1.30;;;20.40;40.20;;;;;;5007533;28;20338;-68
2022/03/08 04:13:03;;;;;;;2.28;1.40;;;20.40;40.20;;;;;;5004841;28;20489;-68
2022/03/08 04:15:29;;;;;;;1.77;1.20;;;20.40;40.20;;;;;;4999715;28;20037;-65
2022/03/08 04:17:54;;;;;;;1.67;1.15;;;20.40;40.20;;;;;;5007221;28;20447;-65
2022/03/08 04:20:20;;;;;;;1.52;1.30;;;20.40;40.20;;;;;;5005839;28;20033;-65
2022/03/08 04:22:46;;;;;;;2.10;1.30;;;20.40;40.20;;;;;;5005806;28;20493;-64
2022/03/08 04:25:12;;;;;;;1.92;1.27;;;20.40;40.20;;;;;;5005476;28;20326;-64
2022/03/08 04:27:38;;;;;;;1.80;1.30;;;20.40;40.20;;;;;;5004992;28;20021;-68
2022/03/08 04:30:08;;;;;;;1.38;1.10;;;20.40;40.20;;;;;;5005607;28;20366;-68
2022/03/08 04:32:34;;;;;;;1.83;1.30;;;20.40;40.20;;;;;;5007457;28;20435;-64
2022/03/08 04:34:59;;;;;;;2.20;1.35;;;20.40;40.20;;;;;;5005765;28;20041;-65
2022/03/08 04:37:26;;;;;;;1.92;1.30;;;20.40;40.20;;;;;;5002018;28;20018;-62
2022/03/08 04:39:52;;;;;;;1.63;1.20;;;20.40;40.20;;;;;;5002815;28;20061;-68
2022/03/08 04:42:17;;;;;;;1.80;1.20;;;20.40;40.20;;;;;;5004733;28;20066;-63
2022/03/08 04:44:43;;;;;;;2.40;1.20;;;20.40;40.20;;;;;;5005924;28;20068;-66
2022/03/08 04:47:09;;;;;;;1.63;1.23;;;20.30;40.20;;;;;;5005454;28;20022;-65
2022/03/08 04:49:34;;;;;;;1.80;1.30;;;20.40;40.20;;;;;;5005821;28;20116;-67
2022/03/08 04:52:00;;;;;;;1.83;1.30;;;20.40;40.20;;;;;;5004696;28;20038;-64
2022/03/08 04:54:25;;;;;;;2.33;1.45;;;20.40;40.30;;;;;;5003416;28;20057;-65
2022/03/08 04:56:51;;;;;;;1.75;1.20;;;20.30;40.20;;;;;;5003083;28;20060;-64
2022/03/08 04:59:17;;;;;;;2.25;1.30;;;20.30;40.20;;;;;;5004369;28;20030;-68
2022/03/08 05:01:44;;;;;;;2.15;1.27;;;20.30;40.30;;;;;;5004526;28;20050;-64
2022/03/08 05:04:10;;;;;;;2.05;1.38;;;20.40;40.30;;;;;;5003938;28;20022;-66
2022/03/08 05:06:36;;;;;;;1.52;1.13;;;20.30;40.30;;;;;;5018073;28;20090;-67
2022/03/08 05:09:01;;;;;;;1.92;1.27;;;20.30;40.30;;;;;;5002556;28;20034;-68
2022/03/08 05:11:27;;;;;;;2.20;1.27;;;20.30;40.40;;;;;;5005548;28;20108;-65
2022/03/08 05:13:52;;;;;;;2.05;1.40;;;20.30;40.40;;;;;;5004018;28;20399;-69
2022/03/08 05:16:18;;;;;;;2.15;1.20;;;20.30;40.40;;;;;;5003888;28;20034;-69
2022/03/08 05:18:44;;;;;;;1.70;1.20;;;20.30;40.40;;;;;;5003811;28;20030;-63
2022/03/08 05:21:09;;;;;;;2.30;1.23;;;20.30;40.40;;;;;;5005642;28;20022;-63
2022/03/08 05:23:35;;;;;;;1.80;1.17;;;20.30;40.40;;;;;;5003219;28;20064;-66
2022/03/08 05:26:00;;;;;;;1.98;1.30;;;20.30;40.40;;;;;;5003815;28;20037;-64
2022/03/08 05:28:26;;;;;;;1.98;1.20;;;20.30;40.50;;;;;;5004399;28;20553;-64
2022/03/08 05:30:52;;;;;;;2.38;1.40;;;20.30;40.50;;;;;;5003229;28;20498;-64
2022/03/08 05:33:17;;;;;;;1.67;1.20;;;20.30;40.50;;;;;;5005823;28;20054;-65
2022/03/08 05:35:43;;;;;;;2.00;1.30;;;20.30;40.50;;;;;;5003079;28;20034;-64
2022/03/08 05:38:08;;;;;;;2.55;1.27;;;20.30;40.50;;;;;;5003216;28;20118;-64
2022/03/08 05:40:34;;;;;;;2.03;1.27;;;20.30;40.50;;;;;;5002679;28;20037;-62
2022/03/08 05:43:01;;;;;;;2.10;1.13;;;20.30;40.50;;;;;;5005110;28;20462;-64
2022/03/08 05:45:29;;;;;;;1.70;1.10;;;20.30;40.60;;;;;;5003791;28;20077;-64
2022/03/08 05:47:54;;;;;;;2.15;1.30;;;20.30;40.60;;;;;;5003675;28;20647;-64
2022/03/08 05:50:20;;;;;;;2.88;1.33;;;20.30;40.60;;;;;;5018731;28;20108;-61
2022/03/08 05:52:46;;;;;;;1.95;1.20;;;20.30;40.60;;;;;;5004726;28;20025;-61
2022/03/08 05:55:11;;;;;;;2.08;1.30;;;20.30;40.60;;;;;;5001525;28;20080;-64
2022/03/08 05:57:37;;;;;;;2.08;1.27;;;20.20;40.60;;;;;;4998967;28;20026;-68
2022/03/08 06:00:05;;;;;;;2.40;1.38;;;20.20;40.60;;;;;;5001860;28;20529;-64
2022/03/08 06:02:31;;;;;;;2.47;1.48;;;20.20;40.60;;;;;;5002945;28;20049;-68
2022/03/08 06:04:56;;;;;;;2.08;1.35;;;20.20;40.60;;;;;;5000791;28;20033;-64
2022/03/08 06:07:22;;;;;;;2.13;1.38;;;20.20;40.60;;;;;;5003909;28;20077;-65
2022/03/08 06:09:48;;;;;;;2.20;1.30;;;20.20;40.60;;;;;;5002708;28;20744;-67
2022/03/08 06:12:14;;;;;;;2.28;1.35;;;20.20;40.60;;;;;;5003083;28;20021;-64
2022/03/08 06:14:40;;;;;;;2.40;1.30;;;20.20;40.70;;;;;;5000809;28;20088;-62
2022/03/08 06:17:07;;;;;;;1.90;1.15;;;20.20;40.70;;;;;;5004704;28;20030;-68
2022/03/08 06:19:33;;;;;;;2.60;1.30;;;20.20;40.60;;;;;;5001218;28;20049;-63
2022/03/08 06:21:59;;;;;;;2.50;1.23;;;20.20;40.60;;;;;;5001776;28;20033;-62
2022/03/08 06:24:25;;;;;;;2.90;1.40;;;20.30;40.60;;;;;;5003737;28;20104;-65
2022/03/08 06:26:51;;;;;;;2.70;1.20;;;20.30;40.60;;;;;;5000642;28;20037;-68
2022/03/08 06:29:16;;;;;;;3.60;1.90;;;20.30;40.60;;;;;;5001621;28;20025;-65
2022/03/08 06:31:42;;;;;;;2.55;1.30;;;20.30;41.00;;;;;;5002780;28;20426;-63
2022/03/08 06:34:07;;;;;;;2.40;1.38;;;20.60;41.70;;;;;;5001498;28;20045;-66
2022/03/08 06:36:34;;;;;;;2.72;1.20;;;20.90;41.80;;;;;;5004052;28;20078;-62
2022/03/08 06:39:00;;;;;;;2.50;1.30;;;21.20;41.30;;;;;;5003437;28;20109;-63
2022/03/08 06:41:26;;;;;;;1.88;1.10;;;21.50;41.10;;;;;;4999023;28;20065;-63
2022/03/08 06:43:52;;;;;;;3.78;1.30;;;21.80;40.40;;;;;;5005518;28;20035;-62
2022/03/08 06:46:18;;;;;;;5.10;1.98;;;21.90;40.20;;;;;;5003440;28;20336;-66
2022/03/08 06:48:43;;;;;;;3.72;1.90;;;22.10;39.90;;;;;;5004763;28;20040;-65
2022/03/08 06:51:09;;;;;;;3.40;1.80;;;22.40;39.60;;;;;;5004663;28;20064;-64
2022/03/08 06:53:34;;;;;;;3.30;2.00;;;22.60;39.20;;;;;;5004132;28;20107;-62
2022/03/08 06:56:00;;;;;;;4.47;1.92;;;22.60;39.00;;;;;;5004274;28;20364;-64
2022/03/08 06:58:26;;;;;;;4.03;1.90;;;22.80;39.00;;;;;;5003879;28;20053;-62
2022/03/08 07:00:52;;;;;;;3.83;1.95;;;22.80;38.80;;;;;;5004380;28;20128;-67
2022/03/08 07:03:18;;;;;;;3.90;2.00;;;22.90;38.70;;;;;;5004857;28;20164;-63
2022/03/08 07:05:43;;;;;;;3.50;1.80;;;23.00;38.60;;;;;;5005378;28;20946;-63
2022/03/08 07:08:09;;;;;;;3.15;1.85;;;23.10;38.60;;;;;;5005153;28;20351;-65
2022/03/08 07:10:35;;;;;;;3.25;1.60;;;23.20;38.40;;;;;;5001556;28;20029;-64
2022/03/08 07:13:01;;;;;;;3.30;1.88;;;23.30;38.20;;;;;;5004248;28;20049;-67
2022/03/08 07:15:27;;;;;;;3.40;1.80;;;23.40;38.10;;;;;;5003894;28;20026;-61
2022/03/08 07:17:52;;;;;;;4.00;1.73;;;23.50;37.90;;;;;;5006081;28;20061;-66
2022/03/08 07:20:18;;;;;;;3.33;1.85;;;23.50;37.80;;;;;;5004365;28;20029;-62
2022/03/08 07:22:44;;;;;;;3.72;2.00;;;23.50;37.60;;;;;;5003685;28;20048;-66
2022/03/08 07:25:11;;;;;;;3.35;1.92;;;23.60;37.60;;;;;;5003111;28;20868;-61
2022/03/08 07:27:37;;;;;;;3.70;1.95;;;23.60;37.70;;;;;;5004571;28;20423;-64
2022/03/08 07:30:05;;;;;;;4.15;1.98;;;23.50;37.50;;;;;;5003328;28;20436;-66
2022/03/08 07:32:30;;;;;;;3.55;1.92;;;23.50;37.50;;;;;;5020799;28;20041;-64
2022/03/08 07:34:56;;;;;;;3.90;1.80;;;23.50;37.50;;;;;;5009172;28;20087;-64
2022/03/08 07:37:23;;;;;;;2.60;1.60;;;23.50;37.50;;;;;;5009518;28;20136;-64
2022/03/08 07:39:48;;;;;;;3.05;1.60;;;23.50;37.50;;;;;;5007034;28;20038;-65
2022/03/08 07:42:14;;;;;;;3.38;1.70;;;23.50;37.50;;;;;;5005953;28;20057;-63
2022/03/08 07:44:40;;;;;;;3.33;1.67;;;23.50;37.50;;;;;;5009435;28;20018;-61
2022/03/08 07:47:06;;;;;;;3.05;1.70;;;23.50;37.60;;;;;;5008404;28;20060;-67
2022/03/08 07:49:32;;;;;;;2.92;1.63;;;23.50;38.00;;;;;;5022379;28;20113;-67
2022/03/08 07:51:57;;;;;;;2.97;1.60;;;23.50;37.80;;;;;;5008198;28;20025;-63
2022/03/08 07:54:23;;;;;;;3.30;1.50;;;23.50;38.00;;;;;;5007971;28;20025;-64
2022/03/08 07:56:49;;;;;;;3.53;2.00;;;23.50;38.40;;;;;;5007621;28;20041;-65
2022/03/08 07:59:15;;;;;;;3.60;1.60;;;23.50;38.60;;;;;;5006803;28;20041;-65
2022/03/08 08:01:41;;;;;;;2.95;1.65;;;23.50;38.70;;;;;;5007591;28;20546;-61
2022/03/08 08:04:06;;;;;;;2.65;1.50;;;23.50;38.50;;;;;;5008370;28;20117;-64
2022/03/08 08:06:32;;;;;;;3.33;1.70;;;23.50;38.50;;;;;;5007355;28;20029;-63
2022/03/08 08:08:58;;;;;;;3.10;1.63;;;23.50;39.10;;;;;;5009148;28;20061;-65
2022/03/08 08:11:23;;;;;;;3.38;1.60;;;23.50;38.50;;;;;;5012185;28;20061;-62
2022/03/08 08:13:50;;;;;;;3.15;1.58;;;23.50;38.70;;;;;;5013959;28;20034;-65
2022/03/08 08:16:17;;;;;;;3.28;1.65;;;23.50;38.50;;;;;;5006891;28;20026;-68
2022/03/08 08:18:43;;;;;;;3.15;1.60;;;23.50;38.30;;;;;;5013255;28;20066;-66
2022/03/08 08:21:09;;;;;;;3.28;1.60;;;23.50;38.20;;;;;;5019201;28;20124;-64
2022/03/08 08:23:35;;;;;;;2.40;1.63;;;23.50;38.20;;;;;;5023937;28;20022;-65
2022/03/08 08:26:00;;;;;;;2.63;1.63;;;23.50;38.10;;;;;;5023335;28;20084;-65
2022/03/08 08:28:26;;;;;;;2.80;1.50;;;23.50;38.10;;;;;;5012624;28;20173;-63
2022/03/08 08:30:52;;;;;;;3.05;1.50;;;23.50;38.10;;;;;;5015766;28;20052;-67
2022/03/08 08:33:17;;;;;;;3.35;1.77;;;23.50;38.10;;;;;;5005807;28;20029;-64
2022/03/08 08:35:43;;;;;;;2.78;1.73;;;23.50;38.10;;;;;;5012769;28;20100;-67
2022/03/08 08:38:09;;;;;;;4.03;1.60;;;23.50;38.10;;;;;;5010008;28;20034;-66
2022/03/08 08:40:35;;;;;;;2.88;1.58;;;23.50;38.10;;;;;;5003713;28;20136;-65
2022/03/08 08:43:01;;;;;;;2.55;1.48;;;23.50;38.10;;;;;;5007504;28;20072;-64
2022/03/08 08:45:27;;;;;;;3.03;1.77;;;23.50;38.10;;;;;;5001939;28;20121;-65
2022/03/08 08:47:53;;;;;;;3.35;1.80;;;23.50;38.10;;;;;;5006945;28;20022;-63
2022/03/08 08:50:18;;;;;;;2.75;1.50;;;23.50;38.10;;;;;;5007042;28;20034;-63
2022/03/08 08:52:44;;;;;;;3.10;1.58;;;23.50;38.10;;;;;;5005218;28;20117;-64
2022/03/08 08:55:10;;;;;;;2.78;1.58;;;23.50;38.10;;;;;;5005628;28;20064;-68
2022/03/08 08:57:37;;;;;;;2.78;1.60;;;23.50;38.20;;;;;;5004811;28;20025;-67
2022/03/08 09:00:04;;;;;;;3.00;1.50;;;23.50;38.20;;;;;;5002407;28;20040;-66
2022/03/08 09:02:30;;;;;;;2.80;1.52;;;23.50;38.20;;;;;;5003868;28;20038;-65
2022/03/08 09:04:56;;;;;;;2.63;1.50;;;23.50;38.30;;;;;;5008160;28;20030;-62
2022/03/08 09:07:21;;;;;;;3.72;1.70;;;23.50;38.30;;;;;;5002382;28;20538;-64
2022/03/08 09:09:49;;;;;;;3.25;1.90;;;23.50;38.10;;;;;;5004030;28;20058;-67
2022/03/08 09:12:14;;;;;;;4.28;1.90;;;23.40;37.70;;;;;;5001668;28;20030;-65
2022/03/08 09:14:40;;;;;;;2.90;1.70;;;23.40;37.70;;;;;;5013707;28;20081;-65
2022/03/08 09:17:06;;;;;;;4.57;2.15;;;23.40;37.70;;;;;;5003350;28;20033;-65
2022/03/08 09:19:32;;;;;;;4.85;2.00;;;23.40;37.80;;;;;;5005859;28;20053;-62
2022/03/08 09:21:57;;;;;;;3.88;1.80;;;23.40;37.90;;;;;;5000903;28;20380;-61
2022/03/08 09:24:23;;;;;;;3.85;1.70;;;23.30;37.80;;;;;;5003955;28;20109;-67
2022/03/08 09:26:48;;;;;;;3.80;2.00;;;23.30;37.90;;;;;;5001568;28;20037;-67
2022/03/08 09:29:14;;;;;;;3.55;1.90;;;23.30;38.40;;;;;;5005317;28;20546;-62
2022/03/08 09:31:40;;;;;;;3.95;1.90;;;23.40;37.80;;;;;;5005729;28;20048;-64
2022/03/08 09:34:05;;;;;;;3.22;1.80;;;23.40;37.80;;;;;;5007770;28;20040;-63
2022/03/08 09:36:31;;;;;;;3.40;1.77;;;23.40;37.90;;;;;;5004477;28;20759;-63
2022/03/08 09:38:58;;;;;;;2.90;1.80;;;23.40;38.00;;;;;;5006620;28;20041;-64
2022/03/08 09:41:24;;;;;;;2.97;1.67;;;23.40;38.00;;;;;;5003938;28;20033;-65
2022/03/08 09:43:50;;;;;;;3.72;2.00;;;23.40;38.00;;;;;;5004737;28;20092;-67
2022/03/08 09:46:16;;;;;;;3.35;1.75;;;23.40;38.10;;;;;;5006218;28;20089;-65
2022/03/08 09:48:42;;;;;;;3.85;2.00;;;23.40;38.30;;;;;;5007162;28;20030;-67
2022/03/08 09:51:08;;;;;;;3.17;1.88;;;23.40;38.40;;;;;;5005184;28;20057;-62
2022/03/08 09:53:35;;;;;;;4.38;2.10;;;23.40;38.50;;;;;;5004030;28;20034;-65
2022/03/08 09:56:03;;;;;;;2.50;1.67;;;23.40;38.40;;;;;;5003801;28;20041;-63
2022/03/08 09:58:28;;;;;;;2.72;1.67;;;23.30;38.50;;;;;;5004505;28;20042;-66
2022/03/08 10:00:55;;;;;;;2.92;1.73;;;23.40;38.50;;;;;;5003882;28;20083;-67
2022/03/08 10:03:33;;;;;;;2.60;1.70;;;23.40;38.60;;;;;;5006082;28;20026;-63
2022/03/08 10:05:59;;;;;;;2.83;1.55;;;23.40;38.50;;;;;;5005850;28;20129;-67
2022/03/08 10:08:27;;;;;;;3.90;1.80;;;23.40;38.50;;;;;;5001541;28;20084;-63
2022/03/08 10:11:00;;;;;;;2.92;1.70;;;23.40;38.50;;;;;;5001555;28;20102;-65
2022/03/08 10:13:37;;;;;;;3.35;1.60;;;23.40;38.60;;;;;;5005274;28;20950;-65
2022/03/08 10:16:14;;;;;;;2.95;1.60;;;23.40;38.60;;;;;;5005393;28;20107;-63
2022/03/08 10:19:08;;;;;;;2.53;1.40;;;23.40;38.60;;;;;;5004510;28;20386;-67
2022/03/08 10:21:38;;;;;;;3.47;1.50;;;23.40;39.20;;;;;;4999578;28;20411;-67
2022/03/08 10:24:20;;;;;;;2.65;1.60;;;23.40;38.80;;;;;;5019491;28;20335;-63
2022/03/08 10:26:52;;;;;;;2.72;1.60;;;23.40;38.90;;;;;;5004985;28;20049;-65
2022/03/08 10:29:36;;;;;;;3.45;1.63;;;23.40;39.10;;;;;;5004861;28;20022;-64
2022/03/08 10:32:03;;;;;;;3.08;1.58;;;23.40;39.00;;;;;;5003430;28;20025;-68
2022/03/08 10:34:30;;;;;;;3.08;1.65;;;23.40;39.00;;;;;;5006438;28;20108;-68
2022/03/08 10:37:09;;;;;;;2.70;1.88;;;23.40;39.00;;;;;;4999264;28;20032;-65
2022/03/08 10:39:46;;;;;;;;;;;23.40;39.00;;;;;;4998729;28;20026;-65
2022/03/08 10:42:22;;;;;;;2.17;1.40;;;23.40;39.10;;;;;;4994785;28;20008;-64
2022/03/08 10:44:48;;;;;;;2.50;1.48;;;23.40;39.10;;;;;;5001280;28;20017;-63
2022/03/08 10:47:15;;;;;;;2.80;1.67;;;23.40;39.10;;;;;;5004136;28;20034;-63
2022/03/08 10:49:57;;;;;;;3.35;1.70;;;23.40;39.20;;;;;;5003316;28;20486;-63
2022/03/08 10:52:34;;;;;;;2.45;1.50;;;23.40;39.20;;;;;;5000294;28;20049;-62
2022/03/08 10:55:23;;;;;;;3.22;1.60;;;23.40;39.10;;;;;;5004097;28;20037;-67
2022/03/08 10:57:58;;;;;;;3.05;1.65;;;23.40;39.00;;;;;;5003048;28;20044;-64
2022/03/08 11:00:26;;;;;;;2.50;1.67;;;23.40;38.90;;;;;;5002420;28;20040;-65
2022/03/08 11:03:01;;;;;;;3.15;1.70;;;23.40;38.90;;;;;;5000873;28;20120;-64
2022/03/08 11:05:33;;;;;;;3.35;1.65;;;23.30;38.80;;;;;;5002609;28;20377;-65
2022/03/08 11:07:59;;;;;;;3.47;1.50;;;23.30;38.80;;;;;;5001788;28;20116;-63
2022/03/08 11:10:26;;;;;;;2.65;1.70;;;23.30;38.80;;;;;;5001385;28;20029;-65
2022/03/08 11:12:56;;;;;;;2.53;1.52;;;23.30;38.80;;;;;;5001435;28;20045;-62
2022/03/08 11:15:22;;;;;;;;;;;23.30;38.80;;;;;;5002712;28;20057;-65
2022/03/08 11:17:50;;;;;;;3.13;1.60;;;23.30;38.80;;;;;;5002576;28;19913;-61
2022/03/08 11:20:18;;;;;;;3.03;1.70;;;23.30;38.80;;;;;;5001322;28;20028;-65
2022/03/08 11:22:45;;;;;;;2.80;1.67;;;23.30;38.90;;;;;;5003739;28;20034;-65
2022/03/08 11:25:14;;;;;;;2.58;1.40;;;23.20;38.80;;;;;;5001201;28;20143;-63
2022/03/08 11:27:40;;;;;;;2.70;1.60;;;23.20;38.80;;;;;;5000655;28;20025;-63
2022/03/08 11:30:09;;;;;;;2.72;1.42;;;23.20;38.80;;;;;;5004420;28;20026;-65
2022/03/08 11:32:46;;;;;;;3.33;1.40;;;23.20;38.80;;;;;;5002118;28;20029;-62
2022/03/08 11:35:22;;;;;;;2.47;1.40;;;23.20;38.80;;;;;;5004787;28;20046;-63
2022/03/08 11:37:49;;;;;;;2.95;1.70;;;23.20;38.80;;;;;;5001634;28;20030;-62
2022/03/08 11:40:18;;;;;;;2.78;1.70;;;23.20;39.00;;;;;;5000862;28;20112;-65
2022/03/08 11:42:46;;;;;;;2.40;1.40;;;23.20;38.90;;;;;;4997693;28;20029;-65
2022/03/08 11:45:19;;;;;;;3.15;1.85;;;23.20;39.40;;;;;;5004242;28;20037;-65
2022/03/08 11:48:02;;;;;;;2.47;1.60;;;23.20;38.90;;;;;;5005010;28;20030;-61
2022/03/08 11:50:34;;;;;;;2.55;1.55;;;23.20;38.90;;;;;;5001974;28;20045;-64
2022/03/08 11:53:10;;;;;;;2.85;1.63;;;23.20;38.90;;;;;;5001393;28;20030;-64
2022/03/08 11:55:48;;;;;;;2.38;1.60;;;23.20;39.00;;;;;;5002242;28;20022;-65
2022/03/08 11:58:21;;;;;;;2.38;1.48;;;23.20;39.10;;;;;;5001797;28;20018;-62
2022/03/08 12:00:51;;;;;;;3.55;1.58;;;23.20;39.10;;;;;;5001318;28;20429;-64
2022/03/08 12:03:38;;;;;;;3.20;1.70;;;23.20;39.10;;;;;;5003498;28;20048;-62
2022/03/08 12:06:09;;;;;;;2.97;1.48;;;23.20;39.10;;;;;;5002984;28;20038;-64
2022/03/08 12:08:38;;;;;;;2.85;1.40;;;23.20;39.10;;;;;;5001271;28;20466;-62
2022/03/08 12:11:06;;;;;;;2.92;1.77;;;23.20;39.10;;;;;;5000711;28;20026;-64
2022/03/08 12:13:37;;;;;;;2.80;1.60;;;23.20;39.10;;;;;;5001540;28;20030;-65
2022/03/08 12:16:09;;;;;;;3.22;1.55;;;23.20;39.10;;;;;;4999783;28;20053;-64
2022/03/08 12:18:51;;;;;;;4.00;1.60;;;23.20;39.10;;;;;;5012078;28;20328;-62
2022/03/08 12:21:27;;;;;;;2.50;1.30;;;23.20;39.20;;;;;;5005136;28;20160;-63
2022/03/08 12:24:03;;;;;;;3.00;1.60;;;23.20;39.20;;;;;;5001915;28;20033;-63
2022/03/08 12:26:38;;;;;;;2.60;1.48;;;23.20;39.20;;;;;;5004279;28;20037;-62
2022/03/08 12:29:23;;;;;;;2.78;1.58;;;23.20;39.10;;;;;;5000786;28;20113;-65
2022/03/08 12:31:58;;;;;;;2.67;1.40;;;23.20;39.20;;;;;;4997895;28;20126;-63
2022/03/08 12:34:35;;;;;;;2.00;1.20;;;23.20;39.20;;;;;;5001807;28;20064;-63
2022/03/08 12:37:07;;;;;;;2.85;1.58;;;23.20;39.10;;;;;;5002935;28;20044;-62
2022/03/08 12:39:58;;;;;;;2.55;1.30;;;23.20;39.20;;;;;;5001052;28;20057;-63
2022/03/08 12:42:45;;;;;;;2.30;1.40;;;23.20;39.10;;;;;;5000626;28;20038;-62
2022/03/08 12:45:27;;;;;;;3.10;1.63;;;23.20;39.10;;;;;;5019072;28;20049;-62
2022/03/08 12:48:06;;;;;;;4.68;1.65;;;23.20;39.20;;;;;;5001080;28;20056;-63
2022/03/08 12:50:40;;;;;;;2.55;1.40;;;23.20;39.20;;;;;;5003772;28;20037;-64